Terminal Aerodrome Forecast
Issued by NWS

Home | Current Version | Previous Version | Text Only | Print | Product List | Glossary On
Versions: 1 2 3 4 5 6 7 8 9 10 11 12 13 14 15 16 17 18 19 20 21 22 23 24 25 26 27 28 29 30 31 32 33 34 35 36
000
FTUS46 KOTX 281849 AAA
TAFCOE
TAF AMD
KCOE 281849Z 2819/2918 24016G27KT P6SM SCT030 BKN040 OVC100
      WS020/24049KT
     FM282200 23022G30KT P6SM VCSH SCT030 OVC050
     FM290200 21014G27KT P6SM -RA BKN020 OVC050
     FM290800 28020G26KT P6SM VCSH BKN025 OVC060
      AMD LTD TO CLD AND VIS=

USA.gov is the U.S. government's official web portal to all federal, state and local government web resources and services.